sensor_id;sensor_type;location;lat;lon;timestamp;P1;durP1;ratioP1;P2;durP2;ratioP2
55728;SDS011;41633;39.720;2.910;2023-08-06T00:02:03;10.40;;;2.63;;
55728;SDS011;41633;39.720;2.910;2023-08-06T00:04:29;6.97;;;2.33;;
55728;SDS011;41633;39.720;2.910;2023-08-06T00:06:55;9.98;;;2.40;;
55728;SDS011;41633;39.720;2.910;2023-08-06T00:09:21;8.05;;;2.30;;
55728;SDS011;41633;39.720;2.910;2023-08-06T00:11:47;8.80;;;2.58;;
55728;SDS011;41633;39.720;2.910;2023-08-06T00:14:13;9.38;;;2.15;;
55728;SDS011;41633;39.720;2.910;2023-08-06T00:16:45;8.55;;;2.55;;
55728;SDS011;41633;39.720;2.910;2023-08-06T00:19:11;7.38;;;2.40;;
55728;SDS011;41633;39.720;2.910;2023-08-06T00:21:37;11.80;;;2.35;;
55728;SDS011;41633;39.720;2.910;2023-08-06T00:24:04;7.82;;;2.53;;
55728;SDS011;41633;39.720;2.910;2023-08-06T00:26:30;10.07;;;3.33;;
55728;SDS011;41633;39.720;2.910;2023-08-06T00:28:56;9.65;;;2.85;;
55728;SDS011;41633;39.720;2.910;2023-08-06T00:31:22;8.00;;;2.47;;
55728;SDS011;41633;39.720;2.910;2023-08-06T00:33:48;8.55;;;2.28;;
55728;SDS011;41633;39.720;2.910;2023-08-06T00:36:14;7.00;;;2.05;;
55728;SDS011;41633;39.720;2.910;2023-08-06T00:38:41;6.70;;;2.20;;
55728;SDS011;41633;39.720;2.910;2023-08-06T00:41:07;7.63;;;2.10;;
55728;SDS011;41633;39.720;2.910;2023-08-06T00:43:33;8.13;;;2.42;;
55728;SDS011;41633;39.720;2.910;2023-08-06T00:45:59;12.25;;;2.20;;
55728;SDS011;41633;39.720;2.910;2023-08-06T00:48:25;7.20;;;1.98;;
55728;SDS011;41633;39.720;2.910;2023-08-06T00:50:52;8.18;;;2.30;;
55728;SDS011;41633;39.720;2.910;2023-08-06T00:53:18;7.13;;;2.10;;
55728;SDS011;41633;39.720;2.910;2023-08-06T00:55:44;7.20;;;1.95;;
55728;SDS011;41633;39.720;2.910;2023-08-06T00:58:11;10.02;;;2.67;;
55728;SDS011;41633;39.720;2.910;2023-08-06T01:00:38;10.50;;;2.30;;
55728;SDS011;41633;39.720;2.910;2023-08-06T01:03:04;8.48;;;2.45;;
55728;SDS011;41633;39.720;2.910;2023-08-06T01:05:30;9.55;;;2.22;;
55728;SDS011;41633;39.720;2.910;2023-08-06T01:08:58;8.35;;;2.50;;
55728;SDS011;41633;39.720;2.910;2023-08-06T01:16:06;9.13;;;2.45;;
55728;SDS011;41633;39.720;2.910;2023-08-06T01:18:32;8.60;;;2.10;;
55728;SDS011;41633;39.720;2.910;2023-08-06T01:20:58;9.10;;;2.10;;
55728;SDS011;41633;39.720;2.910;2023-08-06T01:23:24;9.43;;;2.35;;
55728;SDS011;41633;39.720;2.910;2023-08-06T01:28:52;6.72;;;2.00;;
55728;SDS011;41633;39.720;2.910;2023-08-06T01:31:24;9.40;;;2.20;;
55728;SDS011;41633;39.720;2.910;2023-08-06T01:33:50;6.90;;;2.30;;
55728;SDS011;41633;39.720;2.910;2023-08-06T01:36:16;7.70;;;2.55;;
55728;SDS011;41633;39.720;2.910;2023-08-06T01:38:43;9.18;;;2.92;;
55728;SDS011;41633;39.720;2.910;2023-08-06T01:41:09;9.60;;;2.50;;
55728;SDS011;41633;39.720;2.910;2023-08-06T01:43:36;9.35;;;2.25;;
55728;SDS011;41633;39.720;2.910;2023-08-06T01:46:02;7.90;;;2.35;;
55728;SDS011;41633;39.720;2.910;2023-08-06T01:48:28;8.13;;;2.42;;
55728;SDS011;41633;39.720;2.910;2023-08-06T01:50:54;8.77;;;2.38;;
55728;SDS011;41633;39.720;2.910;2023-08-06T01:53:20;9.13;;;2.28;;
55728;SDS011;41633;39.720;2.910;2023-08-06T01:55:49;11.98;;;2.70;;
55728;SDS011;41633;39.720;2.910;2023-08-06T01:58:15;7.00;;;2.30;;
55728;SDS011;41633;39.720;2.910;2023-08-06T02:00:42;7.88;;;2.40;;
55728;SDS011;41633;39.720;2.910;2023-08-06T02:03:08;7.90;;;2.28;;
55728;SDS011;41633;39.720;2.910;2023-08-06T02:05:34;8.70;;;2.30;;
55728;SDS011;41633;39.720;2.910;2023-08-06T02:08:00;6.82;;;2.20;;
55728;SDS011;41633;39.720;2.910;2023-08-06T02:10:26;8.18;;;2.22;;
55728;SDS011;41633;39.720;2.910;2023-08-06T02:12:52;8.80;;;2.20;;
55728;SDS011;41633;39.720;2.910;2023-08-06T02:15:18;10.05;;;2.25;;
55728;SDS011;41633;39.720;2.910;2023-08-06T02:17:44;10.00;;;2.40;;
55728;SDS011;41633;39.720;2.910;2023-08-06T02:20:11;7.57;;;2.08;;
55728;SDS011;41633;39.720;2.910;2023-08-06T02:22:37;7.43;;;2.03;;
55728;SDS011;41633;39.720;2.910;2023-08-06T02:25:03;6.90;;;1.70;;
55728;SDS011;41633;39.720;2.910;2023-08-06T02:27:30;7.45;;;1.95;;
55728;SDS011;41633;39.720;2.910;2023-08-06T02:29:56;8.15;;;1.80;;
55728;SDS011;41633;39.720;2.910;2023-08-06T02:32:22;6.72;;;2.00;;
55728;SDS011;41633;39.720;2.910;2023-08-06T02:34:48;7.70;;;1.77;;
55728;SDS011;41633;39.720;2.910;2023-08-06T02:37:14;7.15;;;1.77;;
55728;SDS011;41633;39.720;2.910;2023-08-06T02:39:40;7.13;;;1.70;;
55728;SDS011;41633;39.720;2.910;2023-08-06T02:42:07;6.30;;;1.70;;
55728;SDS011;41633;39.720;2.910;2023-08-06T02:44:34;6.70;;;1.70;;
55728;SDS011;41633;39.720;2.910;2023-08-06T02:47:00;6.75;;;1.98;;
55728;SDS011;41633;39.720;2.910;2023-08-06T02:49:26;6.45;;;1.90;;
55728;SDS011;41633;39.720;2.910;2023-08-06T02:51:53;6.28;;;1.80;;
55728;SDS011;41633;39.720;2.910;2023-08-06T02:54:19;7.85;;;1.80;;
55728;SDS011;41633;39.720;2.910;2023-08-06T02:56:45;9.52;;;2.15;;
55728;SDS011;41633;39.720;2.910;2023-08-06T02:59:12;8.23;;;2.10;;
55728;SDS011;41633;39.720;2.910;2023-08-06T03:01:38;7.30;;;2.15;;
55728;SDS011;41633;39.720;2.910;2023-08-06T03:04:04;9.75;;;2.08;;
55728;SDS011;41633;39.720;2.910;2023-08-06T03:06:30;7.88;;;1.98;;
55728;SDS011;41633;39.720;2.910;2023-08-06T03:08:57;7.22;;;1.70;;
55728;SDS011;41633;39.720;2.910;2023-08-06T03:11:23;8.73;;;1.90;;
55728;SDS011;41633;39.720;2.910;2023-08-06T03:13:49;7.35;;;2.05;;
55728;SDS011;41633;39.720;2.910;2023-08-06T03:16:15;7.30;;;1.88;;
55728;SDS011;41633;39.720;2.910;2023-08-06T03:18:41;7.50;;;2.00;;
55728;SDS011;41633;39.720;2.910;2023-08-06T03:21:07;6.75;;;1.70;;
55728;SDS011;41633;39.720;2.910;2023-08-06T03:23:34;6.57;;;1.83;;
55728;SDS011;41633;39.720;2.910;2023-08-06T03:26:03;6.82;;;1.60;;
55728;SDS011;41633;39.720;2.910;2023-08-06T03:28:29;6.45;;;2.10;;
55728;SDS011;41633;39.720;2.910;2023-08-06T03:30:59;7.32;;;1.80;;
55728;SDS011;41633;39.720;2.910;2023-08-06T03:33:25;6.40;;;1.92;;
55728;SDS011;41633;39.720;2.910;2023-08-06T03:35:51;6.38;;;1.73;;
55728;SDS011;41633;39.720;2.910;2023-08-06T03:38:17;5.90;;;1.70;;
55728;SDS011;41633;39.720;2.910;2023-08-06T03:40:43;7.75;;;1.90;;
55728;SDS011;41633;39.720;2.910;2023-08-06T03:43:10;6.47;;;1.80;;
55728;SDS011;41633;39.720;2.910;2023-08-06T03:45:36;9.10;;;1.90;;
55728;SDS011;41633;39.720;2.910;2023-08-06T03:48:02;6.68;;;1.70;;
55728;SDS011;41633;39.720;2.910;2023-08-06T03:50:28;6.30;;;1.80;;
55728;SDS011;41633;39.720;2.910;2023-08-06T03:52:54;7.50;;;1.70;;
55728;SDS011;41633;39.720;2.910;2023-08-06T03:55:20;7.18;;;2.03;;
55728;SDS011;41633;39.720;2.910;2023-08-06T03:57:47;8.13;;;2.13;;
55728;SDS011;41633;39.720;2.910;2023-08-06T04:00:13;9.40;;;2.03;;
55728;SDS011;41633;39.720;2.910;2023-08-06T04:02:39;8.95;;;2.30;;
55728;SDS011;41633;39.720;2.910;2023-08-06T04:05:05;7.25;;;1.80;;
55728;SDS011;41633;39.720;2.910;2023-08-06T04:07:31;5.72;;;1.90;;
55728;SDS011;41633;39.720;2.910;2023-08-06T04:09:58;7.13;;;1.77;;
55728;SDS011;41633;39.720;2.910;2023-08-06T04:12:24;6.30;;;2.05;;
55728;SDS011;41633;39.720;2.910;2023-08-06T04:14:51;6.35;;;1.85;;
55728;SDS011;41633;39.720;2.910;2023-08-06T04:17:18;7.25;;;1.70;;
55728;SDS011;41633;39.720;2.910;2023-08-06T04:19:47;5.50;;;1.80;;
55728;SDS011;41633;39.720;2.910;2023-08-06T04:22:14;5.15;;;1.67;;
55728;SDS011;41633;39.720;2.910;2023-08-06T04:24:40;6.22;;;1.65;;
55728;SDS011;41633;39.720;2.910;2023-08-06T04:27:06;4.35;;;1.35;;
55728;SDS011;41633;39.720;2.910;2023-08-06T04:29:32;6.07;;;1.70;;
55728;SDS011;41633;39.720;2.910;2023-08-06T04:31:59;6.78;;;1.50;;
55728;SDS011;41633;39.720;2.910;2023-08-06T04:34:25;4.88;;;1.58;;
55728;SDS011;41633;39.720;2.910;2023-08-06T04:36:51;6.68;;;1.88;;
55728;SDS011;41633;39.720;2.910;2023-08-06T04:39:17;7.13;;;1.73;;
55728;SDS011;41633;39.720;2.910;2023-08-06T04:41:43;8.77;;;1.90;;
55728;SDS011;41633;39.720;2.910;2023-08-06T04:44:09;7.32;;;1.90;;
55728;SDS011;41633;39.720;2.910;2023-08-06T04:46:35;7.72;;;1.85;;
55728;SDS011;41633;39.720;2.910;2023-08-06T04:49:02;10.40;;;2.30;;
55728;SDS011;41633;39.720;2.910;2023-08-06T04:51:28;6.88;;;1.98;;
55728;SDS011;41633;39.720;2.910;2023-08-06T04:53:54;8.85;;;2.22;;
55728;SDS011;41633;39.720;2.910;2023-08-06T04:56:20;10.13;;;2.22;;
55728;SDS011;41633;39.720;2.910;2023-08-06T04:58:46;6.20;;;1.75;;
55728;SDS011;41633;39.720;2.910;2023-08-06T05:01:12;9.27;;;2.13;;
55728;SDS011;41633;39.720;2.910;2023-08-06T05:03:39;6.35;;;1.73;;
55728;SDS011;41633;39.720;2.910;2023-08-06T05:06:05;6.50;;;1.90;;
55728;SDS011;41633;39.720;2.910;2023-08-06T05:08:31;8.27;;;2.00;;
55728;SDS011;41633;39.720;2.910;2023-08-06T05:10:57;7.50;;;1.92;;
55728;SDS011;41633;39.720;2.910;2023-08-06T05:13:23;7.03;;;2.00;;
55728;SDS011;41633;39.720;2.910;2023-08-06T05:15:50;9.02;;;2.13;;
55728;SDS011;41633;39.720;2.910;2023-08-06T05:18:16;7.10;;;1.88;;
55728;SDS011;41633;39.720;2.910;2023-08-06T05:20:42;7.07;;;1.63;;
55728;SDS011;41633;39.720;2.910;2023-08-06T05:23:09;6.15;;;1.92;;
55728;SDS011;41633;39.720;2.910;2023-08-06T05:25:35;9.10;;;2.42;;
55728;SDS011;41633;39.720;2.910;2023-08-06T05:28:01;7.25;;;2.00;;
55728;SDS011;41633;39.720;2.910;2023-08-06T05:30:28;7.57;;;1.83;;
55728;SDS011;41633;39.720;2.910;2023-08-06T05:32:54;8.05;;;1.70;;
55728;SDS011;41633;39.720;2.910;2023-08-06T05:35:20;6.95;;;2.10;;
55728;SDS011;41633;39.720;2.910;2023-08-06T05:37:47;9.50;;;2.30;;
55728;SDS011;41633;39.720;2.910;2023-08-06T05:40:13;9.50;;;2.28;;
55728;SDS011;41633;39.720;2.910;2023-08-06T05:42:40;8.10;;;2.38;;
55728;SDS011;41633;39.720;2.910;2023-08-06T05:45:06;7.93;;;2.30;;
55728;SDS011;41633;39.720;2.910;2023-08-06T05:47:33;7.90;;;2.35;;
55728;SDS011;41633;39.720;2.910;2023-08-06T05:49:59;7.55;;;2.38;;
55728;SDS011;41633;39.720;2.910;2023-08-06T05:52:25;7.13;;;1.92;;
55728;SDS011;41633;39.720;2.910;2023-08-06T05:54:51;8.63;;;2.10;;
55728;SDS011;41633;39.720;2.910;2023-08-06T05:57:17;8.10;;;2.33;;
55728;SDS011;41633;39.720;2.910;2023-08-06T05:59:43;9.07;;;2.20;;
55728;SDS011;41633;39.720;2.910;2023-08-06T06:02:09;8.52;;;2.47;;
55728;SDS011;41633;39.720;2.910;2023-08-06T06:04:36;6.82;;;2.20;;
55728;SDS011;41633;39.720;2.910;2023-08-06T06:07:03;9.40;;;2.30;;
55728;SDS011;41633;39.720;2.910;2023-08-06T06:09:29;12.35;;;2.42;;
55728;SDS011;41633;39.720;2.910;2023-08-06T06:11:55;9.63;;;2.88;;
55728;SDS011;41633;39.720;2.910;2023-08-06T06:14:21;8.10;;;2.80;;
55728;SDS011;41633;39.720;2.910;2023-08-06T06:16:47;9.40;;;3.13;;
55728;SDS011;41633;39.720;2.910;2023-08-06T06:19:13;8.38;;;2.90;;
55728;SDS011;41633;39.720;2.910;2023-08-06T06:21:40;8.18;;;2.70;;
55728;SDS011;41633;39.720;2.910;2023-08-06T06:24:06;7.35;;;2.33;;
55728;SDS011;41633;39.720;2.910;2023-08-06T06:26:33;10.20;;;2.15;;
55728;SDS011;41633;39.720;2.910;2023-08-06T06:28:59;9.95;;;2.35;;
55728;SDS011;41633;39.720;2.910;2023-08-06T06:31:25;7.13;;;2.25;;
55728;SDS011;41633;39.720;2.910;2023-08-06T06:33:52;7.97;;;2.13;;
55728;SDS011;41633;39.720;2.910;2023-08-06T06:36:19;10.02;;;2.53;;
55728;SDS011;41633;39.720;2.910;2023-08-06T06:38:45;7.70;;;2.20;;
55728;SDS011;41633;39.720;2.910;2023-08-06T06:41:13;10.25;;;3.15;;
55728;SDS011;41633;39.720;2.910;2023-08-06T06:43:39;14.70;;;5.70;;
55728;SDS011;41633;39.720;2.910;2023-08-06T06:46:05;14.38;;;5.97;;
55728;SDS011;41633;39.720;2.910;2023-08-06T06:48:32;11.85;;;4.90;;
55728;SDS011;41633;39.720;2.910;2023-08-06T06:50:59;12.35;;;4.45;;
55728;SDS011;41633;39.720;2.910;2023-08-06T06:53:25;11.55;;;4.40;;
55728;SDS011;41633;39.720;2.910;2023-08-06T06:55:54;9.73;;;3.22;;
55728;SDS011;41633;39.720;2.910;2023-08-06T06:58:21;12.32;;;3.38;;
55728;SDS011;41633;39.720;2.910;2023-08-06T07:00:47;8.85;;;2.92;;
55728;SDS011;41633;39.720;2.910;2023-08-06T07:03:14;7.55;;;2.25;;
55728;SDS011;41633;39.720;2.910;2023-08-06T07:05:41;6.78;;;1.90;;
55728;SDS011;41633;39.720;2.910;2023-08-06T07:08:08;6.72;;;1.80;;
55728;SDS011;41633;39.720;2.910;2023-08-06T07:10:34;7.18;;;1.90;;
55728;SDS011;41633;39.720;2.910;2023-08-06T07:13:00;6.28;;;1.90;;
55728;SDS011;41633;39.720;2.910;2023-08-06T07:15:26;7.15;;;1.85;;
55728;SDS011;41633;39.720;2.910;2023-08-06T07:17:52;10.02;;;1.80;;
55728;SDS011;41633;39.720;2.910;2023-08-06T07:20:18;7.95;;;2.00;;
55728;SDS011;41633;39.720;2.910;2023-08-06T07:22:44;7.57;;;1.75;;
55728;SDS011;41633;39.720;2.910;2023-08-06T07:25:11;6.82;;;1.85;;
55728;SDS011;41633;39.720;2.910;2023-08-06T07:27:37;8.40;;;2.30;;
55728;SDS011;41633;39.720;2.910;2023-08-06T07:30:03;9.05;;;2.40;;
55728;SDS011;41633;39.720;2.910;2023-08-06T07:32:30;7.75;;;2.50;;
55728;SDS011;41633;39.720;2.910;2023-08-06T07:34:56;6.80;;;1.90;;
55728;SDS011;41633;39.720;2.910;2023-08-06T07:37:25;6.05;;;1.77;;
55728;SDS011;41633;39.720;2.910;2023-08-06T07:39:55;8.15;;;1.88;;
55728;SDS011;41633;39.720;2.910;2023-08-06T07:42:21;7.60;;;2.00;;
55728;SDS011;41633;39.720;2.910;2023-08-06T07:44:54;9.55;;;2.47;;
55728;SDS011;41633;39.720;2.910;2023-08-06T07:47:20;6.90;;;2.03;;
55728;SDS011;41633;39.720;2.910;2023-08-06T07:49:47;7.13;;;2.10;;
55728;SDS011;41633;39.720;2.910;2023-08-06T07:52:13;6.95;;;1.60;;
55728;SDS011;41633;39.720;2.910;2023-08-06T07:54:39;7.53;;;1.85;;
55728;SDS011;41633;39.720;2.910;2023-08-06T07:57:05;6.57;;;1.60;;
55728;SDS011;41633;39.720;2.910;2023-08-06T07:59:31;7.53;;;1.65;;
55728;SDS011;41633;39.720;2.910;2023-08-06T08:01:57;6.43;;;1.80;;
55728;SDS011;41633;39.720;2.910;2023-08-06T08:04:24;8.48;;;2.50;;
55728;SDS011;41633;39.720;2.910;2023-08-06T08:06:50;9.35;;;2.17;;
55728;SDS011;41633;39.720;2.910;2023-08-06T08:09:16;7.85;;;1.80;;
55728;SDS011;41633;39.720;2.910;2023-08-06T08:11:43;6.85;;;1.90;;
55728;SDS011;41633;39.720;2.910;2023-08-06T08:14:09;8.35;;;2.03;;
55728;SDS011;41633;39.720;2.910;2023-08-06T08:16:35;6.88;;;1.80;;
55728;SDS011;41633;39.720;2.910;2023-08-06T08:19:02;7.93;;;1.70;;
55728;SDS011;41633;39.720;2.910;2023-08-06T08:21:29;7.25;;;1.58;;
55728;SDS011;41633;39.720;2.910;2023-08-06T08:23:55;5.72;;;1.52;;
55728;SDS011;41633;39.720;2.910;2023-08-06T08:26:21;5.90;;;1.40;;
55728;SDS011;41633;39.720;2.910;2023-08-06T08:28:48;7.28;;;1.80;;
55728;SDS011;41633;39.720;2.910;2023-08-06T08:31:14;7.40;;;2.80;;
55728;SDS011;41633;39.720;2.910;2023-08-06T08:33:41;9.73;;;2.30;;
55728;SDS011;41633;39.720;2.910;2023-08-06T08:36:07;6.80;;;2.10;;
55728;SDS011;41633;39.720;2.910;2023-08-06T08:38:35;6.70;;;1.65;;
55728;SDS011;41633;39.720;2.910;2023-08-06T08:41:01;8.00;;;1.80;;
55728;SDS011;41633;39.720;2.910;2023-08-06T08:43:27;6.07;;;1.52;;
55728;SDS011;41633;39.720;2.910;2023-08-06T08:45:54;6.68;;;1.67;;
55728;SDS011;41633;39.720;2.910;2023-08-06T08:48:26;5.18;;;1.80;;
55728;SDS011;41633;39.720;2.910;2023-08-06T08:50:53;6.40;;;1.63;;
55728;SDS011;41633;39.720;2.910;2023-08-06T08:53:19;6.72;;;1.85;;
55728;SDS011;41633;39.720;2.910;2023-08-06T08:55:47;7.25;;;2.03;;
55728;SDS011;41633;39.720;2.910;2023-08-06T08:58:14;9.43;;;1.67;;
55728;SDS011;41633;39.720;2.910;2023-08-06T09:00:45;5.43;;;1.48;;
55728;SDS011;41633;39.720;2.910;2023-08-06T09:03:13;7.85;;;1.42;;
55728;SDS011;41633;39.720;2.910;2023-08-06T09:05:42;6.88;;;1.27;;
55728;SDS011;41633;39.720;2.910;2023-08-06T09:08:10;8.25;;;1.60;;
55728;SDS011;41633;39.720;2.910;2023-08-06T09:10:37;8.73;;;1.63;;
55728;SDS011;41633;39.720;2.910;2023-08-06T09:13:04;6.75;;;1.38;;
55728;SDS011;41633;39.720;2.910;2023-08-06T09:15:31;7.53;;;1.52;;
55728;SDS011;41633;39.720;2.910;2023-08-06T09:17:58;6.25;;;1.40;;
55728;SDS011;41633;39.720;2.910;2023-08-06T09:20:24;6.55;;;1.73;;
55728;SDS011;41633;39.720;2.910;2023-08-06T09:22:54;7.25;;;1.75;;
55728;SDS011;41633;39.720;2.910;2023-08-06T09:25:21;7.00;;;1.70;;
55728;SDS011;41633;39.720;2.910;2023-08-06T09:27:48;5.00;;;1.40;;
55728;SDS011;41633;39.720;2.910;2023-08-06T09:30:28;5.38;;;1.30;;
55728;SDS011;41633;39.720;2.910;2023-08-06T09:32:55;6.85;;;1.40;;
55728;SDS011;41633;39.720;2.910;2023-08-06T09:35:21;4.75;;;1.30;;
55728;SDS011;41633;39.720;2.910;2023-08-06T09:37:47;5.28;;;1.30;;
55728;SDS011;41633;39.720;2.910;2023-08-06T09:40:27;6.20;;;1.40;;
55728;SDS011;41633;39.720;2.910;2023-08-06T09:42:53;5.93;;;1.33;;
55728;SDS011;41633;39.720;2.910;2023-08-06T09:45:20;6.00;;;1.40;;
55728;SDS011;41633;39.720;2.910;2023-08-06T09:47:55;6.07;;;1.20;;
55728;SDS011;41633;39.720;2.910;2023-08-06T09:50:23;5.15;;;1.35;;
55728;SDS011;41633;39.720;2.910;2023-08-06T09:52:52;6.40;;;1.60;;
55728;SDS011;41633;39.720;2.910;2023-08-06T09:55:18;5.75;;;1.30;;
55728;SDS011;41633;39.720;2.910;2023-08-06T09:57:45;6.00;;;1.40;;
55728;SDS011;41633;39.720;2.910;2023-08-06T10:00:12;5.07;;;1.25;;
55728;SDS011;41633;39.720;2.910;2023-08-06T10:02:39;4.80;;;1.05;;
55728;SDS011;41633;39.720;2.910;2023-08-06T10:05:06;6.53;;;1.50;;
55728;SDS011;41633;39.720;2.910;2023-08-06T10:07:32;5.53;;;1.38;;
55728;SDS011;41633;39.720;2.910;2023-08-06T10:09:59;4.40;;;1.38;;
55728;SDS011;41633;39.720;2.910;2023-08-06T10:12:26;5.57;;;1.40;;
55728;SDS011;41633;39.720;2.910;2023-08-06T10:14:54;8.48;;;1.50;;
55728;SDS011;41633;39.720;2.910;2023-08-06T10:17:21;3.90;;;1.17;;
55728;SDS011;41633;39.720;2.910;2023-08-06T10:19:48;4.43;;;1.30;;
55728;SDS011;41633;39.720;2.910;2023-08-06T10:22:16;5.55;;;1.30;;
55728;SDS011;41633;39.720;2.910;2023-08-06T10:24:49;8.18;;;1.33;;
55728;SDS011;41633;39.720;2.910;2023-08-06T10:27:19;6.60;;;1.50;;
55728;SDS011;41633;39.720;2.910;2023-08-06T10:29:46;6.03;;;1.45;;
55728;SDS011;41633;39.720;2.910;2023-08-06T10:32:13;6.72;;;1.50;;
55728;SDS011;41633;39.720;2.910;2023-08-06T10:34:55;6.22;;;1.50;;
55728;SDS011;41633;39.720;2.910;2023-08-06T10:37:22;4.90;;;1.20;;
55728;SDS011;41633;39.720;2.910;2023-08-06T10:39:49;5.35;;;1.17;;
55728;SDS011;41633;39.720;2.910;2023-08-06T10:42:19;6.00;;;1.20;;
55728;SDS011;41633;39.720;2.910;2023-08-06T10:45:10;8.57;;;1.30;;
55728;SDS011;41633;39.720;2.910;2023-08-06T10:47:38;5.40;;;1.02;;
55728;SDS011;41633;39.720;2.910;2023-08-06T10:50:05;5.30;;;1.15;;
55728;SDS011;41633;39.720;2.910;2023-08-06T10:52:32;4.43;;;1.13;;
55728;SDS011;41633;39.720;2.910;2023-08-06T10:54:58;4.95;;;1.42;;
55728;SDS011;41633;39.720;2.910;2023-08-06T10:57:25;7.13;;;1.55;;
55728;SDS011;41633;39.720;2.910;2023-08-06T10:59:51;5.22;;;1.30;;
55728;SDS011;41633;39.720;2.910;2023-08-06T11:02:17;6.93;;;1.50;;
55728;SDS011;41633;39.720;2.910;2023-08-06T11:04:43;6.90;;;1.30;;
55728;SDS011;41633;39.720;2.910;2023-08-06T11:07:09;6.30;;;1.50;;
55728;SDS011;41633;39.720;2.910;2023-08-06T11:09:36;5.75;;;1.40;;
55728;SDS011;41633;39.720;2.910;2023-08-06T11:12:07;8.60;;;1.85;;
55728;SDS011;41633;39.720;2.910;2023-08-06T11:14:34;5.80;;;1.48;;
55728;SDS011;41633;39.720;2.910;2023-08-06T11:17:01;6.20;;;1.60;;
55728;SDS011;41633;39.720;2.910;2023-08-06T11:19:27;6.10;;;1.48;;
55728;SDS011;41633;39.720;2.910;2023-08-06T11:21:54;6.22;;;1.65;;
55728;SDS011;41633;39.720;2.910;2023-08-06T11:24:20;5.85;;;1.30;;
55728;SDS011;41633;39.720;2.910;2023-08-06T11:26:46;7.80;;;1.25;;
55728;SDS011;41633;39.720;2.910;2023-08-06T11:29:14;8.20;;;1.90;;
55728;SDS011;41633;39.720;2.910;2023-08-06T11:31:40;8.88;;;2.10;;
55728;SDS011;41633;39.720;2.910;2023-08-06T11:34:07;7.65;;;1.58;;
55728;SDS011;41633;39.720;2.910;2023-08-06T11:36:34;8.77;;;1.88;;
55728;SDS011;41633;39.720;2.910;2023-08-06T11:39:02;8.02;;;2.08;;
55728;SDS011;41633;39.720;2.910;2023-08-06T11:41:32;7.65;;;2.08;;
55728;SDS011;41633;39.720;2.910;2023-08-06T11:43:58;8.15;;;2.00;;
55728;SDS011;41633;39.720;2.910;2023-08-06T11:46:25;6.90;;;1.80;;
55728;SDS011;41633;39.720;2.910;2023-08-06T11:48:54;8.18;;;1.83;;
55728;SDS011;41633;39.720;2.910;2023-08-06T11:51:24;6.63;;;1.73;;
55728;SDS011;41633;39.720;2.910;2023-08-06T11:53:57;7.90;;;1.75;;
55728;SDS011;41633;39.720;2.910;2023-08-06T11:56:26;7.10;;;1.83;;
55728;SDS011;41633;39.720;2.910;2023-08-06T11:58:53;8.32;;;2.10;;
55728;SDS011;41633;39.720;2.910;2023-08-06T12:01:20;7.45;;;2.10;;
55728;SDS011;41633;39.720;2.910;2023-08-06T12:03:46;6.22;;;1.90;;
55728;SDS011;41633;39.720;2.910;2023-08-06T12:06:12;9.32;;;2.30;;
55728;SDS011;41633;39.720;2.910;2023-08-06T12:08:38;11.57;;;3.03;;
55728;SDS011;41633;39.720;2.910;2023-08-06T12:11:06;10.27;;;3.92;;
55728;SDS011;41633;39.720;2.910;2023-08-06T12:13:32;10.93;;;4.03;;
55728;SDS011;41633;39.720;2.910;2023-08-06T12:15:59;8.95;;;2.90;;
55728;SDS011;41633;39.720;2.910;2023-08-06T12:18:25;9.55;;;2.83;;
55728;SDS011;41633;39.720;2.910;2023-08-06T12:20:51;9.68;;;3.03;;
55728;SDS011;41633;39.720;2.910;2023-08-06T12:23:17;11.63;;;2.50;;
55728;SDS011;41633;39.720;2.910;2023-08-06T12:25:43;9.00;;;2.20;;
55728;SDS011;41633;39.720;2.910;2023-08-06T12:28:10;7.72;;;2.35;;
55728;SDS011;41633;39.720;2.910;2023-08-06T12:30:37;12.23;;;2.40;;
55728;SDS011;41633;39.720;2.910;2023-08-06T12:33:06;10.32;;;2.20;;
55728;SDS011;41633;39.720;2.910;2023-08-06T12:35:33;10.23;;;2.08;;
55728;SDS011;41633;39.720;2.910;2023-08-06T12:37:59;9.57;;;1.98;;
55728;SDS011;41633;39.720;2.910;2023-08-06T12:40:25;9.88;;;2.30;;
55728;SDS011;41633;39.720;2.910;2023-08-06T12:42:53;8.65;;;2.08;;
55728;SDS011;41633;39.720;2.910;2023-08-06T12:45:19;14.50;;;2.90;;
55728;SDS011;41633;39.720;2.910;2023-08-06T12:47:48;10.90;;;2.03;;
55728;SDS011;41633;39.720;2.910;2023-08-06T12:50:14;6.25;;;1.60;;
55728;SDS011;41633;39.720;2.910;2023-08-06T12:52:42;7.88;;;2.22;;
55728;SDS011;41633;39.720;2.910;2023-08-06T12:55:08;9.07;;;2.20;;
55728;SDS011;41633;39.720;2.910;2023-08-06T12:57:34;8.73;;;2.15;;
55728;SDS011;41633;39.720;2.910;2023-08-06T13:00:01;9.85;;;2.40;;
55728;SDS011;41633;39.720;2.910;2023-08-06T13:02:27;8.18;;;2.17;;
55728;SDS011;41633;39.720;2.910;2023-08-06T13:04:55;9.45;;;2.22;;
55728;SDS011;41633;39.720;2.910;2023-08-06T13:07:21;10.77;;;3.38;;
55728;SDS011;41633;39.720;2.910;2023-08-06T13:09:47;11.15;;;3.08;;
55728;SDS011;41633;39.720;2.910;2023-08-06T13:12:13;12.02;;;2.80;;
55728;SDS011;41633;39.720;2.910;2023-08-06T13:14:39;9.43;;;2.42;;
55728;SDS011;41633;39.720;2.910;2023-08-06T13:17:05;7.85;;;2.10;;
55728;SDS011;41633;39.720;2.910;2023-08-06T13:19:32;9.63;;;2.42;;
55728;SDS011;41633;39.720;2.910;2023-08-06T13:22:02;10.65;;;2.20;;
55728;SDS011;41633;39.720;2.910;2023-08-06T13:24:33;8.07;;;1.98;;
55728;SDS011;41633;39.720;2.910;2023-08-06T13:27:00;8.80;;;2.25;;
55728;SDS011;41633;39.720;2.910;2023-08-06T13:29:26;8.98;;;2.05;;
55728;SDS011;41633;39.720;2.910;2023-08-06T13:31:53;7.63;;;1.88;;
55728;SDS011;41633;39.720;2.910;2023-08-06T13:34:19;9.40;;;2.28;;
55728;SDS011;41633;39.720;2.910;2023-08-06T13:36:45;11.30;;;2.65;;
55728;SDS011;41633;39.720;2.910;2023-08-06T13:39:12;9.43;;;2.38;;
55728;SDS011;41633;39.720;2.910;2023-08-06T13:41:41;10.73;;;2.25;;
55728;SDS011;41633;39.720;2.910;2023-08-06T13:44:07;10.23;;;2.30;;
55728;SDS011;41633;39.720;2.910;2023-08-06T13:46:33;11.10;;;2.40;;
55728;SDS011;41633;39.720;2.910;2023-08-06T13:48:59;9.15;;;2.38;;
55728;SDS011;41633;39.720;2.910;2023-08-06T13:51:26;7.00;;;1.85;;
55728;SDS011;41633;39.720;2.910;2023-08-06T13:53:52;10.77;;;2.42;;
55728;SDS011;41633;39.720;2.910;2023-08-06T13:56:19;10.07;;;2.35;;
55728;SDS011;41633;39.720;2.910;2023-08-06T13:58:45;9.10;;;2.22;;
55728;SDS011;41633;39.720;2.910;2023-08-06T14:01:12;13.27;;;2.35;;
55728;SDS011;41633;39.720;2.910;2023-08-06T14:03:38;9.85;;;2.40;;
55728;SDS011;41633;39.720;2.910;2023-08-06T14:06:04;9.00;;;2.20;;
55728;SDS011;41633;39.720;2.910;2023-08-06T14:08:30;8.77;;;2.13;;
55728;SDS011;41633;39.720;2.910;2023-08-06T14:10:57;9.38;;;2.30;;
55728;SDS011;41633;39.720;2.910;2023-08-06T14:13:23;9.40;;;2.00;;
55728;SDS011;41633;39.720;2.910;2023-08-06T14:15:49;8.15;;;2.00;;
55728;SDS011;41633;39.720;2.910;2023-08-06T14:18:15;14.13;;;2.63;;
55728;SDS011;41633;39.720;2.910;2023-08-06T14:20:42;11.85;;;2.60;;
55728;SDS011;41633;39.720;2.910;2023-08-06T14:23:08;9.32;;;2.28;;
55728;SDS011;41633;39.720;2.910;2023-08-06T14:25:34;8.88;;;2.30;;
55728;SDS011;41633;39.720;2.910;2023-08-06T14:28:01;11.00;;;2.60;;
55728;SDS011;41633;39.720;2.910;2023-08-06T14:30:27;7.75;;;2.20;;
55728;SDS011;41633;39.720;2.910;2023-08-06T14:32:53;10.38;;;2.38;;
55728;SDS011;41633;39.720;2.910;2023-08-06T14:35:19;10.80;;;2.85;;
55728;SDS011;41633;39.720;2.910;2023-08-06T14:37:45;8.40;;;2.42;;
55728;SDS011;41633;39.720;2.910;2023-08-06T14:40:12;10.20;;;2.33;;
55728;SDS011;41633;39.720;2.910;2023-08-06T14:42:38;8.80;;;2.45;;
55728;SDS011;41633;39.720;2.910;2023-08-06T14:45:04;11.80;;;2.67;;
55728;SDS011;41633;39.720;2.910;2023-08-06T14:47:31;11.27;;;2.22;;
55728;SDS011;41633;39.720;2.910;2023-08-06T14:49:57;10.50;;;2.67;;
55728;SDS011;41633;39.720;2.910;2023-08-06T14:52:23;11.80;;;3.38;;